createdAt,value
2023-05-12T00:00:33.550Z,98292.59
2023-05-12T00:05:55.326Z,98280.00
2023-05-12T00:11:17.153Z,98283.41
2023-05-12T00:16:39.015Z,98274.16
2023-05-12T00:22:01.137Z,98268.59
2023-05-12T00:27:23.292Z,98271.03
2023-05-12T00:32:45.103Z,98269.66
2023-05-12T00:38:06.944Z,98267.56
2023-05-12T00:43:29.365Z,98269.13
2023-05-12T00:48:51.501Z,98263.50
2023-05-12T00:54:13.441Z,98268.72
2023-05-12T00:59:35.252Z,98262.66
2023-05-12T01:04:57.123Z,98271.22
2023-05-12T01:10:22.270Z,98268.31
2023-05-12T01:15:47.459Z,98265.41
2023-05-12T01:21:10.291Z,98268.75
2023-05-12T01:26:33.316Z,98259.56
2023-05-12T01:31:55.234Z,98267.81
2023-05-12T01:37:17.011Z,98264.38
2023-05-12T01:42:42.718Z,98267.59
2023-05-12T01:48:04.670Z,98262.25
2023-05-12T01:53:26.439Z,98265.19
2023-05-12T01:58:48.223Z,98266.47
2023-05-12T02:04:10.325Z,98264.88
2023-05-12T02:09:32.086Z,98266.28
2023-05-12T02:14:53.786Z,98272.56
2023-05-12T02:20:15.629Z,98262.91
2023-05-12T02:25:37.780Z,98265.03
2023-05-12T02:30:59.506Z,98263.38
2023-05-12T02:36:21.367Z,98264.81
2023-05-12T02:41:43.081Z,98264.28
2023-05-12T02:47:05.073Z,98260.22
2023-05-12T02:52:26.820Z,98255.19
2023-05-12T02:57:48.543Z,98265.03
2023-05-12T03:03:10.517Z,98262.81
2023-05-12T03:08:32.866Z,98266.09
2023-05-12T03:13:54.602Z,98270.50
2023-05-12T03:19:16.298Z,98271.22
2023-05-12T03:24:38.172Z,98263.06
2023-05-12T03:30:05.010Z,98263.47
2023-05-12T03:35:26.951Z,98273.63
2023-05-12T03:40:52.526Z,98276.16
2023-05-12T03:46:14.783Z,98262.44
2023-05-12T03:51:36.581Z,98266.31
2023-05-12T03:56:58.301Z,98266.50
2023-05-12T04:02:20.066Z,98260.84
2023-05-12T04:07:41.818Z,98261.06
2023-05-12T04:13:03.533Z,98256.44
2023-05-12T04:18:26.725Z,98260.00
2023-05-12T04:23:52.397Z,98267.75
2023-05-12T04:29:14.164Z,98270.91
2023-05-12T04:34:35.956Z,98267.13
2023-05-12T04:39:57.684Z,98278.25
2023-05-12T04:45:19.583Z,98274.06
2023-05-12T04:50:41.452Z,98277.63
2023-05-12T04:56:03.622Z,98287.78
2023-05-12T05:01:25.390Z,98295.66
2023-05-12T05:06:47.137Z,98288.31
2023-05-12T05:12:09.041Z,98288.63
2023-05-12T05:17:30.852Z,98291.59
2023-05-12T05:22:52.626Z,98286.63
2023-05-12T05:28:14.373Z,98294.09
2023-05-12T05:33:36.270Z,98299.00
2023-05-12T05:38:58.103Z,98304.69
2023-05-12T05:44:19.967Z,98303.81
2023-05-12T05:49:42.177Z,98308.16
2023-05-12T05:55:04.156Z,98302.91
2023-05-12T06:00:25.858Z,98306.34
2023-05-12T06:05:48.295Z,98308.97
2023-05-12T06:11:10.000Z,98311.16
2023-05-12T06:16:31.814Z,98315.03
2023-05-12T06:21:53.518Z,98311.81
2023-05-12T06:27:15.334Z,98316.81
2023-05-12T06:32:37.212Z,98320.47
2023-05-12T06:37:58.996Z,98325.94
2023-05-12T06:43:20.730Z,98321.69
2023-05-12T06:48:42.615Z,98319.28
2023-05-12T06:54:04.508Z,98323.75
2023-05-12T06:59:26.259Z,98322.94
2023-05-12T07:04:47.975Z,98327.56
2023-05-12T07:10:10.453Z,98328.34
2023-05-12T07:15:33.048Z,98321.97
2023-05-12T07:20:55.663Z,98323.25
2023-05-12T07:26:18.603Z,98322.28
2023-05-12T07:31:40.728Z,98314.56
2023-05-12T07:37:03.929Z,98315.94
2023-05-12T07:42:25.681Z,98320.84
2023-05-12T07:47:47.464Z,98318.91
2023-05-12T07:53:09.281Z,98312.56
2023-05-12T07:58:31.094Z,98316.53
2023-05-12T08:03:52.910Z,98311.66
2023-05-12T08:09:17.043Z,98311.28
2023-05-12T08:14:38.777Z,98315.50
2023-05-12T08:20:00.689Z,98318.56
2023-05-12T08:25:22.663Z,98316.13
2023-05-12T08:30:45.491Z,98320.97
2023-05-12T08:36:07.479Z,98311.06
2023-05-12T08:41:55.987Z,98317.19
2023-05-12T08:47:18.820Z,98319.56
2023-05-12T08:52:40.678Z,98319.97
2023-05-12T08:58:03.710Z,98323.78
2023-05-12T09:03:27.453Z,98318.56
2023-05-12T09:08:49.182Z,98323.47
2023-05-12T09:14:19.043Z,98316.06
2023-05-12T09:19:40.898Z,98323.16
2023-05-12T09:25:16.529Z,98315.50
2023-05-12T09:30:42.154Z,98323.63
2023-05-12T09:36:04.109Z,98315.25
2023-05-12T09:41:25.991Z,98321.69
2023-05-12T09:46:48.320Z,98313.09
2023-05-12T09:52:10.396Z,98319.53
2023-05-12T09:57:37.641Z,98312.53
2023-05-12T10:03:00.516Z,98315.38
2023-05-12T10:08:32.127Z,98319.31
2023-05-12T10:13:53.923Z,98315.13
2023-05-12T10:19:15.828Z,98316.34
2023-05-12T10:24:37.821Z,98319.31
2023-05-12T10:30:01.439Z,98309.31
2023-05-12T10:35:32.716Z,98307.59
2023-05-12T10:40:58.797Z,98313.59
2023-05-12T10:46:22.546Z,98310.94
2023-05-12T10:51:44.381Z,98312.50
2023-05-12T10:57:15.897Z,98321.00
2023-05-12T11:02:51.185Z,98311.53
2023-05-12T11:08:14.344Z,98316.94
2023-05-12T11:13:37.411Z,98319.09
2023-05-12T11:19:04.042Z,98334.75
2023-05-12T11:24:25.780Z,98335.00
2023-05-12T11:29:58.706Z,98333.81
2023-05-12T11:35:21.300Z,98342.16
2023-05-12T11:40:43.949Z,98339.19
2023-05-12T11:46:05.896Z,98345.00
2023-05-12T11:51:27.649Z,98344.63
2023-05-12T11:56:53.834Z,98348.31
2023-05-12T12:02:21.345Z,98348.78
2023-05-12T12:07:43.102Z,98360.72
2023-05-12T12:13:05.261Z,98348.31
2023-05-12T12:18:27.134Z,98352.66
2023-05-12T12:23:51.748Z,98347.44
2023-05-12T12:29:13.609Z,98349.00
2023-05-12T12:34:35.343Z,98344.44
2023-05-12T12:39:57.086Z,98348.16
2023-05-12T12:45:20.509Z,98347.53
2023-05-12T12:50:42.495Z,98340.25
2023-05-12T12:56:05.066Z,98344.41
2023-05-12T13:01:26.877Z,98341.75
2023-05-12T13:06:49.262Z,98339.34
2023-05-12T13:12:11.106Z,98341.72
2023-05-12T13:17:32.995Z,98350.97
2023-05-12T13:22:54.772Z,98350.28
2023-05-12T13:28:16.525Z,98356.28
2023-05-12T13:33:38.276Z,98346.94
2023-05-12T13:39:00.397Z,98351.75
2023-05-12T13:44:22.257Z,98355.09
2023-05-12T13:49:43.975Z,98357.63
2023-05-12T13:55:06.020Z,98350.41
2023-05-12T14:00:29.718Z,98355.81
2023-05-12T14:05:51.501Z,98356.63
2023-05-12T14:11:13.326Z,98351.38
2023-05-12T14:16:35.085Z,98353.28
